createdAt,value
2019-03-30T00:00:58.128Z,63.70
2019-03-30T00:04:04.500Z,64.30
2019-03-30T00:07:10.764Z,64.10
2019-03-30T00:10:17.036Z,64.10
2019-03-30T00:13:23.455Z,64.10
2019-03-30T00:16:29.671Z,64.60
2019-03-30T00:19:35.935Z,64.60
2019-03-30T00:22:42.208Z,64.10
2019-03-30T00:25:48.585Z,63.80
2019-03-30T00:28:54.986Z,63.70
2019-03-30T00:32:01.212Z,63.70
2019-03-30T00:35:07.727Z,61.90
2019-03-30T00:38:14.241Z,62.80
2019-03-30T00:41:20.899Z,63.70
2019-03-30T00:45:18.153Z,65.40
2019-03-30T00:48:27.999Z,65.50
2019-03-30T00:51:34.420Z,65.80
2019-03-30T00:54:40.940Z,65.80
2019-03-30T00:57:47.358Z,66.10
2019-03-30T01:00:54.758Z,65.90
2019-03-30T01:04:01.155Z,66.10
2019-03-30T01:07:07.483Z,66.00
2019-03-30T01:10:13.967Z,66.00
2019-03-30T01:13:20.431Z,66.20
2019-03-30T01:16:26.805Z,65.70
2019-03-30T01:19:33.111Z,65.50
2019-03-30T01:22:39.543Z,65.60
2019-03-30T01:25:45.807Z,65.60
2019-03-30T01:28:52.190Z,65.50
2019-03-30T01:31:58.547Z,65.60
2019-03-30T01:35:04.988Z,65.30
2019-03-30T01:38:11.279Z,65.30
2019-03-30T01:41:17.551Z,65.60
2019-03-30T01:44:23.858Z,65.40
2019-03-30T01:47:30.300Z,65.30
2019-03-30T01:50:36.655Z,65.30
2019-03-30T01:53:42.924Z,65.60
2019-03-30T01:56:49.195Z,65.40
2019-03-30T01:59:55.712Z,65.30
2019-03-30T02:03:02.153Z,65.40
2019-03-30T02:06:08.608Z,64.90
2019-03-30T02:09:15.018Z,64.80
2019-03-30T02:12:21.242Z,65.00
2019-03-30T02:15:27.663Z,64.80
2019-03-30T02:18:33.984Z,64.80
2019-03-30T02:21:40.259Z,65.60
2019-03-30T02:24:46.555Z,64.70
2019-03-30T02:27:53.001Z,64.60
2019-03-30T02:30:59.311Z,65.00
2019-03-30T02:34:05.632Z,64.60
2019-03-30T02:37:11.896Z,63.80
2019-03-30T02:40:18.312Z,60.30
2019-03-30T02:43:24.632Z,64.10
2019-03-30T02:46:31.008Z,64.50
2019-03-30T02:49:37.308Z,64.80
2019-03-30T02:52:43.683Z,64.70
2019-03-30T02:55:50.147Z,64.70
2019-03-30T02:58:56.382Z,64.70
2019-03-30T03:02:02.647Z,64.70
2019-03-30T03:05:10.384Z,64.70
2019-03-30T03:08:16.728Z,64.80
2019-03-30T03:11:23.227Z,64.50
2019-03-30T03:14:29.600Z,64.70
2019-03-30T03:17:35.936Z,64.30
2019-03-30T03:20:42.332Z,64.30
2019-03-30T03:23:48.564Z,64.50
2019-03-30T03:26:54.868Z,64.40
2019-03-30T03:30:01.496Z,64.10
2019-03-30T03:33:08.176Z,64.30
2019-03-30T03:36:14.602Z,64.30
2019-03-30T03:39:20.936Z,64.00
2019-03-30T03:42:27.235Z,64.00
2019-03-30T03:45:34.125Z,63.90
2019-03-30T03:48:40.551Z,63.90
2019-03-30T03:51:46.946Z,63.80
2019-03-30T03:54:54.971Z,63.80
2019-03-30T03:58:02.931Z,63.80
2019-03-30T04:01:09.901Z,63.70
2019-03-30T04:04:18.503Z,63.60
2019-03-30T04:07:26.869Z,63.60
2019-03-30T04:10:36.173Z,63.30
2019-03-30T04:13:44.180Z,63.10
2019-03-30T04:16:50.589Z,63.40
2019-03-30T04:19:57.050Z,63.30
2019-03-30T04:23:03.425Z,63.00
2019-03-30T04:26:09.781Z,62.80
2019-03-30T04:29:16.065Z,62.30
2019-03-30T04:32:22.427Z,62.40
2019-03-30T04:35:28.729Z,62.10
2019-03-30T04:38:34.948Z,62.20
2019-03-30T04:41:41.223Z,61.80
2019-03-30T04:44:47.484Z,62.10
2019-03-30T04:47:53.867Z,61.90
2019-03-30T04:51:00.270Z,61.70
2019-03-30T04:54:06.690Z,61.60
2019-03-30T04:57:13.175Z,61.20
2019-03-30T05:00:19.548Z,61.80
2019-03-30T05:03:25.811Z,61.10
2019-03-30T05:06:32.294Z,60.90
2019-03-30T05:09:38.662Z,61.00
2019-03-30T05:12:45.015Z,60.80
2019-03-30T05:15:51.319Z,60.70
2019-03-30T05:18:57.547Z,61.30
2019-03-30T05:22:12.064Z,61.00
2019-03-30T05:25:11.728Z,61.00
2019-03-30T05:28:17.996Z,61.10
2019-03-30T05:31:24.320Z,60.60
2019-03-30T05:34:30.629Z,60.70
2019-03-30T05:37:37.003Z,61.00
2019-03-30T05:40:43.263Z,61.00
2019-03-30T05:43:49.532Z,60.50
2019-03-30T05:46:55.943Z,59.30
2019-03-30T05:50:02.392Z,58.50
2019-03-30T05:53:08.739Z,58.40
2019-03-30T05:56:15.046Z,58.90
2019-03-30T05:59:21.387Z,58.70
2019-03-30T06:02:27.787Z,57.70
2019-03-30T06:05:34.024Z,57.00
2019-03-30T06:08:40.293Z,57.60
2019-03-30T06:11:46.582Z,57.90
2019-03-30T06:14:52.916Z,59.10
2019-03-30T06:17:59.184Z,59.50
2019-03-30T06:21:05.603Z,59.60
2019-03-30T06:24:11.926Z,59.50
2019-03-30T06:27:18.228Z,59.50
2019-03-30T06:30:26.291Z,59.20
2019-03-30T06:33:32.576Z,59.00
2019-03-30T06:36:38.984Z,58.80
2019-03-30T06:39:45.311Z,58.60
2019-03-30T06:42:51.610Z,58.30
2019-03-30T06:45:57.980Z,58.10
2019-03-30T06:49:04.429Z,57.80
2019-03-30T06:52:10.827Z,57.50
2019-03-30T06:55:17.050Z,57.20
2019-03-30T06:58:23.427Z,56.90
2019-03-30T07:01:29.828Z,56.90
2019-03-30T07:04:36.367Z,56.50
2019-03-30T07:07:46.060Z,56.10
2019-03-30T07:10:52.540Z,55.80
2019-03-30T07:14:01.704Z,55.60
2019-03-30T07:17:12.766Z,55.40
2019-03-30T07:20:31.559Z,55.20
2019-03-30T07:23:37.947Z,55.00
2019-03-30T07:26:44.203Z,54.90
2019-03-30T07:29:50.546Z,55.60
2019-03-30T07:32:56.968Z,54.90
2019-03-30T07:36:03.289Z,54.80
2019-03-30T07:39:09.689Z,54.20
2019-03-30T07:42:16.051Z,53.90
2019-03-30T07:45:22.279Z,53.50
2019-03-30T07:48:29.572Z,53.30
2019-03-30T07:51:36.055Z,52.90
2019-03-30T07:54:42.323Z,52.90
2019-03-30T07:57:48.685Z,52.60
2019-03-30T08:00:54.953Z,52.50
2019-03-30T08:04:01.324Z,52.50
2019-03-30T08:07:07.838Z,52.70
2019-03-30T08:10:14.362Z,52.30
2019-03-30T08:13:20.735Z,53.40
2019-03-30T08:16:28.492Z,52.60
2019-03-30T08:19:37.587Z,53.30
2019-03-30T08:22:43.947Z,60.40
2019-03-30T08:25:50.228Z,59.70
2019-03-30T08:28:56.578Z,59.60
2019-03-30T08:32:02.851Z,58.30
2019-03-30T08:35:09.523Z,57.80
2019-03-30T08:38:15.895Z,56.60
2019-03-30T08:41:22.314Z,56.60
2019-03-30T08:44:28.640Z,57.00
2019-03-30T08:47:35.034Z,57.10
2019-03-30T08:50:41.266Z,57.20
2019-03-30T08:53:54.434Z,56.00
2019-03-30T08:56:55.559Z,56.10
2019-03-30T09:00:01.918Z,56.00
2019-03-30T09:03:10.261Z,56.20
2019-03-30T09:06:16.492Z,56.60
2019-03-30T09:09:22.775Z,56.80
2019-03-30T09:12:29.138Z,56.80
2019-03-30T09:15:35.395Z,57.30
2019-03-30T09:18:41.672Z,57.10
2019-03-30T09:21:47.932Z,57.30
2019-03-30T09:24:54.312Z,57.60
2019-03-30T09:28:00.675Z,57.50
2019-03-30T09:31:07.040Z,56.70
2019-03-30T09:34:13.682Z,53.00
2019-03-30T09:37:21.041Z,53.40
2019-03-30T09:40:28.954Z,53.40
2019-03-30T09:43:37.581Z,53.30
2019-03-30T09:46:43.232Z,52.90
2019-03-30T09:49:49.676Z,53.30
2019-03-30T09:52:56.035Z,53.00
2019-03-30T09:56:02.551Z,52.80
2019-03-30T09:59:09.028Z,53.80
2019-03-30T10:02:17.131Z,53.30
2019-03-30T10:05:23.452Z,52.80
2019-03-30T10:08:29.723Z,52.90
2019-03-30T10:11:36.139Z,53.20
2019-03-30T10:14:42.461Z,53.30
2019-03-30T10:17:48.726Z,53.30
2019-03-30T10:20:55.035Z,53.70
2019-03-30T10:24:01.367Z,53.40
2019-03-30T10:27:08.704Z,53.50
2019-03-30T10:30:16.357Z,53.30
2019-03-30T10:33:22.838Z,53.40
2019-03-30T10:36:29.359Z,53.20
2019-03-30T10:39:36.808Z,52.80
2019-03-30T10:42:43.437Z,53.20
2019-03-30T10:45:49.739Z,53.20
2019-03-30T10:48:56.935Z,52.80
2019-03-30T10:52:03.240Z,53.10
2019-03-30T10:55:09.779Z,53.30
2019-03-30T10:58:16.174Z,53.30
2019-03-30T11:01:22.520Z,53.60
2019-03-30T11:04:28.827Z,53.80
2019-03-30T11:07:35.153Z,54.00
2019-03-30T11:10:41.418Z,53.40
2019-03-30T11:13:47.852Z,53.40
2019-03-30T11:16:54.183Z,53.40
2019-03-30T11:20:00.463Z,53.50
2019-03-30T11:23:07.824Z,53.30
2019-03-30T11:26:14.127Z,53.70
2019-03-30T11:29:21.827Z,54.00
2019-03-30T11:32:28.199Z,54.10
2019-03-30T11:35:35.554Z,54.40
2019-03-30T11:38:41.810Z,54.60
2019-03-30T11:41:48.131Z,54.70
2019-03-30T11:44:54.447Z,54.90
2019-03-30T11:48:00.827Z,54.90
2019-03-30T11:51:07.187Z,54.90
2019-03-30T11:54:15.780Z,54.20
2019-03-30T11:57:22.215Z,53.90
2019-03-30T12:00:28.555Z,53.30
2019-03-30T12:03:35.347Z,52.90
2019-03-30T12:06:41.824Z,52.60
2019-03-30T12:09:48.168Z,52.70
2019-03-30T12:12:54.555Z,52.60
2019-03-30T12:16:02.088Z,52.90
2019-03-30T12:19:09.587Z,52.80
2019-03-30T12:22:16.011Z,52.80
2019-03-30T12:25:34.770Z,52.80
2019-03-30T12:28:30.275Z,53.00
2019-03-30T12:31:36.655Z,53.40
2019-03-30T12:34:42.918Z,53.60
2019-03-30T12:37:50.767Z,53.20
2019-03-30T12:40:56.995Z,52.80
2019-03-30T12:44:03.393Z,52.70
2019-03-30T12:47:10.506Z,52.60
2019-03-30T12:50:16.938Z,52.80
2019-03-30T12:53:23.321Z,52.70
2019-03-30T12:56:31.619Z,52.80
2019-03-30T12:59:38.097Z,52.70
2019-03-30T13:02:44.444Z,53.00
2019-03-30T13:05:50.702Z,52.40
2019-03-30T13:08:59.972Z,52.60
2019-03-30T13:12:09.565Z,52.80
2019-03-30T13:15:17.392Z,52.70
2019-03-30T13:18:23.747Z,52.60
2019-03-30T13:21:32.366Z,53.00
2019-03-30T13:24:38.098Z,52.90
2019-03-30T13:27:45.568Z,53.30
2019-03-30T13:30:52.233Z,52.60
2019-03-30T13:33:58.600Z,52.90
2019-03-30T13:37:16.757Z,52.40
2019-03-30T13:40:23.020Z,52.10
2019-03-30T13:43:29.418Z,52.10
2019-03-30T13:46:35.647Z,52.30
2019-03-30T13:49:42.063Z,52.00
2019-03-30T13:52:48.397Z,51.90
2019-03-30T13:55:54.755Z,52.60
2019-03-30T13:59:01.176Z,52.10
2019-03-30T14:02:07.598Z,52.20
2019-03-30T14:05:14.115Z,52.30
2019-03-30T14:08:20.415Z,52.30
2019-03-30T14:11:26.607Z,52.40
2019-03-30T14:14:32.907Z,52.20
2019-03-30T14:17:39.245Z,52.20
2019-03-30T14:20:45.551Z,52.10
2019-03-30T14:23:52.018Z,51.90
2019-03-30T14:26:58.251Z,51.70
2019-03-30T14:30:05.067Z,51.90
2019-03-30T14:33:11.419Z,51.60
2019-03-30T14:36:17.711Z,51.50
2019-03-30T14:39:24.104Z,51.60
2019-03-30T14:42:30.303Z,51.90
2019-03-30T14:45:36.711Z,52.00
2019-03-30T14:48:42.983Z,51.80
2019-03-30T14:51:49.356Z,51.90
2019-03-30T14:54:55.612Z,52.00
2019-03-30T14:58:01.844Z,52.10
2019-03-30T15:01:08.248Z,52.00
2019-03-30T15:04:14.480Z,51.90
2019-03-30T15:07:20.924Z,51.60
2019-03-30T15:10:27.163Z,51.50
2019-03-30T15:13:33.596Z,51.40
2019-03-30T15:16:39.995Z,51.30
2019-03-30T15:19:46.359Z,51.10
2019-03-30T15:22:52.699Z,51.00
2019-03-30T15:25:59.239Z,50.90
2019-03-30T15:29:05.675Z,51.00
2019-03-30T15:32:12.183Z,51.20
2019-03-30T15:35:18.704Z,52.60
2019-03-30T15:38:25.055Z,50.30
2019-03-30T15:41:31.445Z,50.30
2019-03-30T15:44:37.819Z,51.50
2019-03-30T15:47:44.069Z,51.10
2019-03-30T15:50:51.572Z,51.00
2019-03-30T15:53:57.926Z,51.20
2019-03-30T15:57:13.970Z,50.40
2019-03-30T16:00:12.979Z,49.00
2019-03-30T16:03:19.402Z,47.90
2019-03-30T16:06:25.671Z,48.10
2019-03-30T16:09:32.015Z,48.90
2019-03-30T16:12:38.297Z,47.50
2019-03-30T16:15:44.885Z,47.30
2019-03-30T16:18:51.031Z,47.50
2019-03-30T16:21:57.304Z,47.50
2019-03-30T16:25:04.379Z,47.00
2019-03-30T16:28:10.807Z,47.20
2019-03-30T16:31:17.267Z,47.20
2019-03-30T16:34:23.603Z,46.80
2019-03-30T16:37:29.871Z,46.60
2019-03-30T16:40:36.423Z,46.50
2019-03-30T16:43:42.720Z,46.30
2019-03-30T16:46:48.970Z,46.60
2019-03-30T16:49:55.352Z,46.40
2019-03-30T16:53:01.725Z,46.40
2019-03-30T16:56:09.048Z,46.50
2019-03-30T16:59:15.267Z,46.10
2019-03-30T17:02:21.860Z,46.00
2019-03-30T17:05:28.232Z,45.70
2019-03-30T17:08:34.587Z,45.60
2019-03-30T17:11:40.894Z,46.10
2019-03-30T17:14:47.220Z,46.00
2019-03-30T17:17:53.703Z,46.50
2019-03-30T17:21:00.263Z,46.10
2019-03-30T17:24:06.700Z,45.70
2019-03-30T17:27:13.263Z,44.70
2019-03-30T17:30:19.682Z,42.90
2019-03-30T17:33:26.024Z,42.80
2019-03-30T17:36:32.355Z,42.40
2019-03-30T17:39:38.735Z,43.30
2019-03-30T17:42:45.215Z,43.90
2019-03-30T17:45:51.537Z,44.10
2019-03-30T17:48:57.802Z,44.30
2019-03-30T17:52:04.151Z,43.60
2019-03-30T17:55:11.142Z,43.80
2019-03-30T17:58:17.458Z,44.40
2019-03-30T18:01:23.895Z,45.00
2019-03-30T18:04:30.274Z,45.70
2019-03-30T18:07:36.667Z,46.20
2019-03-30T18:10:42.904Z,46.40
2019-03-30T18:13:49.317Z,46.70
2019-03-30T18:16:55.543Z,46.90
2019-03-30T18:20:01.915Z,47.50
2019-03-30T18:23:08.428Z,48.20
2019-03-30T18:26:14.748Z,48.20
2019-03-30T18:29:21.150Z,48.10
2019-03-30T18:32:27.826Z,48.70
2019-03-30T18:35:34.575Z,47.80
2019-03-30T18:38:41.823Z,47.00
2019-03-30T18:41:48.239Z,47.30
2019-03-30T18:44:57.275Z,47.50
2019-03-30T18:48:21.903Z,47.50
2019-03-30T18:51:29.086Z,47.60
2019-03-30T18:54:36.276Z,47.80
2019-03-30T18:57:42.648Z,47.80
2019-03-30T19:00:49.100Z,47.90
2019-03-30T19:03:55.487Z,48.30
2019-03-30T19:07:01.923Z,48.20
2019-03-30T19:10:08.399Z,48.20
2019-03-30T19:13:14.874Z,48.30
2019-03-30T19:16:22.419Z,48.00
2019-03-30T19:19:30.832Z,48.20
2019-03-30T19:22:37.408Z,48.40
2019-03-30T19:25:45.624Z,48.80
2019-03-30T19:28:56.579Z,48.90
2019-03-30T19:32:00.820Z,49.20
2019-03-30T19:35:07.505Z,49.20
2019-03-30T19:38:14.094Z,49.60
2019-03-30T19:41:20.428Z,49.60
2019-03-30T19:44:26.819Z,49.50
2019-03-30T19:47:33.174Z,49.20
2019-03-30T19:50:39.544Z,49.20
2019-03-30T19:53:45.808Z,49.20
2019-03-30T19:56:52.389Z,49.40
2019-03-30T19:59:58.855Z,49.20
2019-03-30T20:03:05.315Z,49.20
2019-03-30T20:06:11.798Z,49.30
2019-03-30T20:09:20.784Z,49.50
2019-03-30T20:12:26.577Z,49.70
2019-03-30T20:15:32.959Z,49.70
2019-03-30T20:18:39.363Z,49.30
2019-03-30T20:21:45.584Z,48.80
2019-03-30T20:24:51.860Z,48.80
2019-03-30T20:27:58.440Z,48.60
2019-03-30T20:31:04.915Z,48.50
2019-03-30T20:34:11.308Z,48.20
2019-03-30T20:37:17.664Z,48.20
2019-03-30T20:40:24.020Z,48.10
2019-03-30T20:43:30.382Z,48.20
2019-03-30T20:46:36.911Z,48.30
2019-03-30T20:49:43.502Z,48.40
2019-03-30T20:52:53.817Z,48.40
2019-03-30T20:56:00.161Z,48.50
2019-03-30T20:59:07.663Z,48.50
2019-03-30T21:02:14.027Z,48.20
2019-03-30T21:05:20.538Z,48.10
2019-03-30T21:08:26.974Z,48.80
2019-03-30T21:11:33.569Z,46.60
2019-03-30T21:14:40.069Z,46.00
2019-03-30T21:17:46.389Z,46.90
2019-03-30T21:20:52.795Z,46.30
2019-03-30T21:23:58.896Z,45.90
2019-03-30T21:27:05.291Z,46.10
2019-03-30T21:30:13.447Z,46.60
2019-03-30T21:33:19.871Z,46.30
2019-03-30T21:36:26.154Z,46.40
2019-03-30T21:39:32.552Z,47.00
2019-03-30T21:42:38.928Z,47.20
2019-03-30T21:45:45.434Z,47.20
2019-03-30T21:48:52.028Z,47.40
2019-03-30T21:51:58.441Z,47.90
2019-03-30T21:55:04.812Z,49.30
2019-03-30T21:58:12.367Z,48.50
2019-03-30T22:01:18.774Z,48.80
2019-03-30T22:04:25.201Z,48.90
2019-03-30T22:07:31.896Z,49.10
2019-03-30T22:10:38.308Z,49.00
2019-03-30T22:13:44.930Z,49.20
2019-03-30T22:16:51.303Z,49.10
2019-03-30T22:19:57.816Z,49.30
2019-03-30T22:23:04.171Z,49.50
2019-03-30T22:26:10.439Z,49.60
2019-03-30T22:29:16.667Z,49.90
2019-03-30T22:32:22.935Z,50.10
2019-03-30T22:35:29.239Z,50.30
2019-03-30T22:38:35.735Z,50.70
2019-03-30T22:41:42.164Z,50.80
2019-03-30T22:44:48.420Z,51.00
2019-03-30T22:47:54.679Z,51.30
2019-03-30T22:51:00.987Z,51.70
2019-03-30T23:16:08.034Z,53.00
2019-03-30T23:23:53.812Z,53.00
2019-03-30T23:27:00.116Z,53.00
2019-03-30T23:30:08.407Z,53.30
2019-03-30T23:33:14.837Z,53.30
2019-03-30T23:36:22.291Z,53.30
2019-03-30T23:39:28.662Z,53.30
2019-03-30T23:42:35.031Z,53.30
2019-03-30T23:45:41.444Z,53.30
2019-03-30T23:48:47.740Z,53.30
2019-03-30T23:51:54.143Z,53.20
2019-03-30T23:55:00.474Z,53.40
2019-03-30T23:58:06.999Z,53.30
